ROMMA est une association bénévole à but non lucratif. Votre soutien est indispensable : ADHERER à ROMMA ou FAIRE un DON

Briord - (01, Ain)

Bugey (281 m)   Longitude: 05° 29' 13" E   Latitude: 45° 46' 37" N Station partenaire n°15
 

Détail journalier du     <<     >>

Température Precipitation Humidité Pression Vent Dir Rafale Dir. rafale Ensol.
Heure (°C) (mm) (%) (hPa) (km/h) (km/h) (min)
01:00 17.307510208NNE24N0
02:00 15.608310202NNE19NNE0
03:00 12.8088102000---0
04:00 11.8091102000---0
05:00 11.0092102000---0
06:00 10.7093102000---0
07:00 10.4094102000---0
08:00 11.6094102000---10
09:00 14.3091102000---10
10:00 16.2085102100---40
11:00 17.1083102100---0
12:00 19.107010202ONO16ONO20
13:00 20.706510198NO26NO40
14:00 22.3056101912NO31NO50
15:00 22.8059101814NO32NNO55
16:00 22.4053101815NO31NO60
17:00 22.5053101813NO35NO35
18:00 22.6053101811NO29NO60
19:00 22.0053101810NO26NO55
20:00 21.005210186NNO21ONO60
21:00 18.805510194NNO18N5
22:00 18.105710193NO24NO0
23:00 15.306710191NO8NO0
minuit 14.3073101903SE0

Graphique du 13-08-2019

 

Serveur OMMA